Aplicació Alertes

Dades de l'estació automàtica Caldes de Montbui

?
?
Resum diari 22:30 TU
Dades diàries de l'estació meteorològica
Temperatura mitjana 4.1 °C
Temperatura màxima 13.0 °C 12:57 TU
Temperatura mínima -3.4 °C 7:18 TU
Humitat relativa mitjana 53%
Precipitació acumulada 0.0 mm
Ratxa màxima del vent (10 m) 34.2 km/h - 306º 14:55 TU
Pressió atmosfèrica mitjana 1026.6 hPa
Irradiació solar global 9.0 MJ/m2

El tram horari està expressat en Temps Universal (TU). Cal sumar una hora en horari d'hivern i dues en horari d'estiu per passar a l'hora oficial.

Caldes de Montbui

Metadades estació meteorol´gica
Municipi Caldes de Montbui
Comarca Vallès Oriental
Altitud 176 m
Data alta 08.03.2007
Estat actual Operativa
Dades de període
Període
TU
TM
°C
TX
°C
TN
°C
HRM
%
PPT
mm
VVM (10 m)
km/h
DVM (10 m)
graus
VVX (10 m)
km/h
PM
hPa
RS
W/m2
00:00 - 00:30 -1.2 -0.3 -1.9 66 0.0 6.5 338 13.0 1023.7 0
00:30 - 01:00 -0.4 0.4 -1.1 62 0.0 4.0 17 9.7 1023.8 0
01:00 - 01:30 -0.2 0.6 -0.8 61 0.0 2.5 357 14.8 1024.0 0
01:30 - 02:00 -0.2 0.3 -0.7 66 0.0 5.8 189 10.8 1024.2 0
02:00 - 02:30 -0.1 0.6 -0.5 73 0.0 3.6 316 10.1 1024.2 0
02:30 - 03:00 0.3 1.3 -0.1 73 0.0 5.4 342 11.9 1024.3 0
03:00 - 03:30 0.7 1.2 0.2 69 0.0 4.3 345 9.4 1024.1 0
03:30 - 04:00 -0.3 0.4 -0.9 72 0.0 1.4 23 4.3 1024.2 0
04:00 - 04:30 -0.8 0.7 -1.7 71 0.0 4.7 11 10.8 1024.7 0
04:30 - 05:00 -0.3 0.8 -0.8 65 0.0 3.2 318 8.3 1025.3 0
05:00 - 05:30 -1.5 -0.1 -2.2 69 0.0 3.2 271 7.9 1025.8 0
05:30 - 06:00 -2.1 -0.8 -2.5 72 0.0 4.0 347 7.6 1026.0 0
06:00 - 06:30 -2.0 -1.2 -2.5 69 0.0 4.7 338 12.2 1026.3 0
06:30 - 07:00 -1.4 -0.5 -2.1 67 0.0 5.8 348 10.4 1026.5 0
07:00 - 07:30 -2.7 -0.6 -3.4 74 0.0 2.9 290 11.9 1027.1 4
07:30 - 08:00 -2.0 -1.1 -3.2 74 0.0 2.9 298 6.5 1027.1 56
08:00 - 08:30 -0.4 0.6 -1.5 71 0.0 2.9 13 5.8 1027.2 129
08:30 - 09:00 1.9 2.8 0.7 63 0.0 3.2 177 7.2 1027.4 204
09:00 - 09:30 3.8 4.5 3.0 56 0.0 4.3 165 9.0 1027.7 276
09:30 - 10:00 4.9 5.9 4.2 57 0.0 5.8 161 10.1 1027.8 337
10:00 - 10:30 6.7 8.1 5.9 51 0.0 4.7 163 8.6 1027.8 387
10:30 - 11:00 9.6 11.2 8.1 41 0.0 2.2 250 5.8 1027.2 421
11:00 - 11:30 10.9 11.4 10.6 30 0.0 9.4 310 16.6 1026.8 449
11:30 - 12:00 11.4 11.7 11.2 30 0.0 12.2 323 21.2 1026.6 460
12:00 - 12:30 12.1 12.4 11.6 27 0.0 11.5 287 19.8 1026.1 453
12:30 - 13:00 12.7 13.0 12.4 25 0.0 14.4 302 23.8 1025.9 434
13:00 - 13:30 12.6 12.8 12.3 28 0.0 14.4 317 29.5 1025.5 402
13:30 - 14:00 12.6 12.9 12.4 29 0.0 10.4 313 25.9 1025.2 353
14:00 - 14:30 12.3 13.0 11.8 29 0.0 12.2 321 29.9 1025.3 292
14:30 - 15:00 11.6 11.8 11.5 30 0.0 19.8 318 34.2 1025.5 225
15:00 - 15:30 11.5 11.6 11.4 27 0.0 11.5 317 28.1 1025.8 147
15:30 - 16:00 11.0 11.6 10.2 28 0.0 6.5 179 19.4 1026.1 52
16:00 - 16:30 9.8 10.8 9.1 31 0.0 7.9 204 13.0 1026.5 5
16:30 - 17:00 8.0 9.4 6.3 36 0.0 7.6 285 12.2 1026.9 0
17:00 - 17:30 6.6 7.1 5.8 41 0.0 4.0 103 9.0 1027.1 0
17:30 - 18:00 5.3 6.3 4.6 46 0.0 4.7 60 13.7 1027.5 0
18:00 - 18:30 5.4 6.7 3.9 46 0.0 5.4 7 10.4 1027.9 0
18:30 - 19:00 3.9 4.4 3.0 52 0.0 7.2 345 12.2 1028.5 0
19:00 - 19:30 2.9 3.3 2.4 55 0.0 6.8 359 11.2 1029.1 0
19:30 - 20:00 3.3 4.1 2.5 54 0.0 7.2 336 12.2 1029.3 0
20:00 - 20:30 2.8 3.5 2.0 56 0.0 9.0 345 12.2 1029.5 0
20:30 - 21:00 3.1 3.7 2.5 56 0.0 10.1 347 15.5 1029.5 0
21:00 - 21:30 2.8 3.4 1.4 57 0.0 4.3 347 9.0 1029.5 0
21:30 - 22:00 2.5 3.6 1.6 60 0.0 6.1 339 11.5 1029.6 0
22:00 - 22:30 1.7 2.9 0.8 64 0.0 2.9 346 7.2 1029.8 0
22:30 - 23:00 0.9 1.5 0.4 68 0.0 2.2 317 5.8 1030.1 0

Les dades en taronja només han passat un control de qualitat automàtic. Resta pendent la seva validació definitiva.